createdAt,value
2018-09-04T00:00:18.762Z,1008.37
2018-09-04T00:01:18.754Z,1008.44
2018-09-04T00:02:18.809Z,1008.46
2018-09-04T00:03:18.731Z,1008.44
2018-09-04T00:04:18.724Z,1008.50
2018-09-04T00:05:18.712Z,1008.47
2018-09-04T00:06:18.699Z,1008.44
2018-09-04T00:07:18.761Z,1008.39
2018-09-04T00:08:18.682Z,1008.41
2018-09-04T00:09:18.678Z,1008.37
2018-09-04T00:10:18.660Z,1008.36
2018-09-04T00:11:18.646Z,1008.38
2018-09-04T00:12:18.709Z,1008.39
2018-09-04T00:13:18.629Z,1008.37
2018-09-04T00:14:21.401Z,1008.44
2018-09-04T00:15:18.604Z,1008.39
2018-09-04T00:16:18.602Z,1008.41
2018-09-04T00:17:18.648Z,1008.45
2018-09-04T00:18:18.585Z,1008.39
2018-09-04T00:19:18.563Z,1008.39
2018-09-04T00:20:18.549Z,1008.45
2018-09-04T00:21:19.413Z,1008.40
2018-09-04T00:22:18.601Z,1008.42
2018-09-04T00:23:18.521Z,1008.42
2018-09-04T00:24:18.507Z,1008.40
2018-09-04T00:25:18.499Z,1008.39
2018-09-04T00:26:18.485Z,1008.37
2018-09-04T00:27:18.557Z,1008.35
2018-09-04T00:28:18.463Z,1008.35
2018-09-04T00:29:18.452Z,1008.31
2018-09-04T00:30:18.447Z,1008.34
2018-09-04T00:31:18.434Z,1008.28
2018-09-04T00:32:18.488Z,1008.26
2018-09-04T00:33:18.413Z,1008.23
2018-09-04T00:34:18.413Z,1008.30
2018-09-04T00:35:18.901Z,1008.29
2018-09-04T00:36:18.381Z,1008.31
2018-09-04T00:37:18.436Z,1008.31
2018-09-04T00:38:18.356Z,1008.30
2018-09-04T00:39:18.353Z,1008.27
2018-09-04T00:40:18.352Z,1008.30
2018-09-04T00:41:18.328Z,1008.33
2018-09-04T00:42:18.378Z,1008.28
2018-09-04T00:43:18.303Z,1008.31
2018-09-04T00:44:18.293Z,1008.32
2018-09-04T00:45:18.284Z,1008.26
2018-09-04T00:46:18.272Z,1008.32
2018-09-04T00:47:18.331Z,1008.22
2018-09-04T00:48:18.256Z,1008.25
2018-09-04T00:49:18.242Z,1008.32
2018-09-04T00:50:18.231Z,1008.28
2018-09-04T00:51:18.220Z,1008.24
2018-09-04T00:52:18.281Z,1008.27
2018-09-04T00:53:18.201Z,1008.28
2018-09-04T00:54:18.190Z,1008.25
2018-09-04T00:55:18.177Z,1008.29
2018-09-04T00:56:19.901Z,1008.27
2018-09-04T00:57:18.223Z,1008.20
2018-09-04T00:58:18.141Z,1008.18
2018-09-04T00:59:18.130Z,1008.23
2018-09-04T01:00:18.121Z,1008.25
2018-09-04T01:01:18.110Z,1008.21
2018-09-04T01:02:18.165Z,1008.21
2018-09-04T01:03:18.088Z,1008.22
2018-09-04T01:04:18.080Z,1008.26
2018-09-04T01:05:18.071Z,1008.23
2018-09-04T01:06:18.060Z,1008.28
2018-09-04T01:07:18.116Z,1008.24
2018-09-04T01:08:18.035Z,1008.24
2018-09-04T01:09:18.024Z,1008.19
2018-09-04T01:10:18.019Z,1008.21
2018-09-04T01:11:18.007Z,1008.22
2018-09-04T01:12:18.062Z,1008.26
2018-09-04T01:13:17.985Z,1008.25
2018-09-04T01:14:17.972Z,1008.27
2018-09-04T01:15:17.964Z,1008.22
2018-09-04T01:16:17.953Z,1008.24
2018-09-04T01:17:18.479Z,1008.25
2018-09-04T01:18:17.927Z,1008.27
2018-09-04T01:19:17.916Z,1008.35
2018-09-04T01:20:17.908Z,1008.37
2018-09-04T01:21:17.897Z,1008.39
2018-09-04T01:22:17.955Z,1008.42
2018-09-04T01:23:17.884Z,1008.40
2018-09-04T01:24:17.866Z,1008.40
2018-09-04T01:25:17.855Z,1008.41
2018-09-04T01:26:17.842Z,1008.44
2018-09-04T01:27:17.907Z,1008.44
2018-09-04T01:28:17.825Z,1008.42
2018-09-04T01:29:17.814Z,1008.43
2018-09-04T01:30:17.800Z,1008.39
2018-09-04T01:31:17.795Z,1008.39
2018-09-04T01:32:17.783Z,1008.49
2018-09-04T01:33:17.836Z,1008.42
2018-09-04T01:34:17.769Z,1008.45
2018-09-04T01:35:17.750Z,1008.43
2018-09-04T01:36:17.739Z,1008.46
2018-09-04T01:37:17.731Z,1008.43
2018-09-04T01:38:17.977Z,1008.50
2018-09-04T01:39:17.706Z,1008.42
2018-09-04T01:40:17.700Z,1008.44
2018-09-04T01:41:17.685Z,1008.47
2018-09-04T01:42:17.673Z,1008.42
2018-09-04T01:43:17.731Z,1008.45
2018-09-04T01:44:17.650Z,1008.41
2018-09-04T01:45:17.645Z,1008.41
2018-09-04T01:46:17.637Z,1008.37
2018-09-04T01:47:17.623Z,1008.38
2018-09-04T01:48:17.675Z,1008.44
2018-09-04T01:49:17.609Z,1008.36
2018-09-04T01:50:17.595Z,1008.40
2018-09-04T01:51:17.582Z,1008.40
2018-09-04T01:52:17.565Z,1008.39
2018-09-04T01:53:17.622Z,1008.42
2018-09-04T01:54:17.543Z,1008.41
2018-09-04T01:55:17.537Z,1008.38
2018-09-04T01:56:17.527Z,1008.40
2018-09-04T01:57:17.515Z,1008.40
2018-09-04T01:58:17.574Z,1008.46
2018-09-04T01:59:18.400Z,1008.42
2018-09-04T02:00:17.482Z,1008.42
2018-09-04T02:01:17.473Z,1008.44
2018-09-04T02:02:17.462Z,1008.42
2018-09-04T02:03:17.515Z,1008.41
2018-09-04T02:04:17.440Z,1008.41
2018-09-04T02:05:17.430Z,1008.47
2018-09-04T02:06:17.416Z,1008.41
2018-09-04T02:07:17.412Z,1008.40
2018-09-04T02:08:17.462Z,1008.39
2018-09-04T02:09:17.385Z,1008.40
2018-09-04T02:10:17.377Z,1008.39
2018-09-04T02:11:17.363Z,1008.45
2018-09-04T02:12:17.352Z,1008.42
2018-09-04T02:13:17.405Z,1008.39
2018-09-04T02:14:17.332Z,1008.37
2018-09-04T02:15:17.322Z,1008.32
2018-09-04T02:16:17.308Z,1008.40
2018-09-04T02:17:17.299Z,1008.31
2018-09-04T02:18:17.355Z,1008.37
2018-09-04T02:20:54.213Z,1008.32
2018-09-04T02:22:02.722Z,1008.30
2018-09-04T02:22:54.186Z,1008.30
2018-09-04T02:23:54.115Z,1008.33
2018-09-04T02:24:54.095Z,1008.36
2018-09-04T02:25:54.084Z,1008.36
2018-09-04T02:28:31.022Z,1008.31
2018-09-04T02:29:40.753Z,1008.29
2018-09-04T02:30:40.654Z,1008.33
2018-09-04T02:31:39.537Z,1008.28
2018-09-04T02:32:30.909Z,1008.28
2018-09-04T02:33:30.967Z,1008.25
2018-09-04T02:34:30.887Z,1008.28
2018-09-04T02:35:30.874Z,1008.25
2018-09-04T02:36:30.865Z,1008.21
2018-09-04T02:37:30.860Z,1008.17
2018-09-04T02:38:30.907Z,1008.18
2018-09-04T02:39:30.833Z,1008.13
2018-09-04T02:40:30.824Z,1008.16
2018-09-04T02:41:30.812Z,1008.11
2018-09-04T02:42:30.817Z,1008.10
2018-09-04T02:43:30.861Z,1008.12
2018-09-04T02:44:30.779Z,1008.13
2018-09-04T02:45:30.769Z,1008.08
2018-09-04T02:46:30.757Z,1008.13
2018-09-04T02:47:30.743Z,1008.13
2018-09-04T02:48:31.308Z,1008.10
2018-09-04T02:49:30.727Z,1008.11
2018-09-04T02:50:30.721Z,1008.14
2018-09-04T02:51:30.705Z,1008.14
2018-09-04T02:52:30.691Z,1008.21
2018-09-04T02:53:30.746Z,1008.13
2018-09-04T02:54:30.671Z,1008.20
2018-09-04T02:55:30.660Z,1008.22
2018-09-04T02:56:30.649Z,1008.19
2018-09-04T02:57:30.635Z,1008.15
2018-09-04T02:58:30.698Z,1008.21
2018-09-04T02:59:30.619Z,1008.26
2018-09-04T03:00:30.611Z,1008.29
2018-09-04T03:01:30.594Z,1008.26
2018-09-04T03:02:30.591Z,1008.25
2018-09-04T03:03:30.640Z,1008.27
2018-09-04T03:04:30.561Z,1008.27
2018-09-04T03:05:30.555Z,1008.24
2018-09-04T03:06:30.542Z,1008.27
2018-09-04T03:07:30.531Z,1008.30
2018-09-04T03:08:30.586Z,1008.30
2018-09-04T03:09:31.237Z,1008.24
2018-09-04T03:10:30.497Z,1008.25
2018-09-04T03:11:30.489Z,1008.27
2018-09-04T03:12:30.478Z,1008.26
2018-09-04T03:13:30.652Z,1008.28
2018-09-04T03:14:30.456Z,1008.32
2018-09-04T03:15:30.446Z,1008.31
2018-09-04T03:16:30.431Z,1008.35
2018-09-04T03:17:30.423Z,1008.34
2018-09-04T03:18:30.478Z,1008.32
2018-09-04T03:19:30.405Z,1008.32
2018-09-04T03:20:30.392Z,1008.32
2018-09-04T03:21:30.381Z,1008.39
2018-09-04T03:22:30.374Z,1008.39
2018-09-04T03:23:30.422Z,1008.36
2018-09-04T03:24:30.350Z,1008.35
2018-09-04T03:25:30.343Z,1008.33
2018-09-04T03:26:30.324Z,1008.32
2018-09-04T03:27:30.318Z,1008.34
2018-09-04T03:28:30.362Z,1008.36
2018-09-04T03:29:30.290Z,1008.38
2018-09-04T03:30:31.235Z,1008.38
2018-09-04T03:31:30.268Z,1008.34
2018-09-04T03:32:30.257Z,1008.37
2018-09-04T03:33:30.325Z,1008.32
2018-09-04T03:34:30.238Z,1008.34
2018-09-04T03:35:30.296Z,1008.34
2018-09-04T03:36:30.219Z,1008.36
2018-09-04T03:37:30.209Z,1008.41
2018-09-04T03:38:30.196Z,1008.34
2018-09-04T03:39:30.260Z,1008.34
2018-09-04T03:40:30.174Z,1008.31
2018-09-04T03:41:30.166Z,1008.39
2018-09-04T03:42:30.191Z,1008.41
2018-09-04T03:43:30.143Z,1008.37
2018-09-04T03:44:30.323Z,1008.34
2018-09-04T03:45:30.121Z,1008.33
2018-09-04T03:46:30.110Z,1008.34
2018-09-04T03:47:30.102Z,1008.36
2018-09-04T03:48:30.091Z,1008.30
2018-09-04T03:49:30.144Z,1008.28
2018-09-04T03:50:30.069Z,1008.33
2018-09-04T03:51:30.733Z,1008.34
2018-09-04T03:52:30.048Z,1008.29
2018-09-04T03:53:30.055Z,1008.28
2018-09-04T03:54:30.096Z,1008.27
2018-09-04T03:55:30.020Z,1008.29
2018-09-04T03:56:30.011Z,1008.30
2018-09-04T03:57:29.999Z,1008.29
2018-09-04T03:58:29.982Z,1008.29
2018-09-04T03:59:30.044Z,1008.33
2018-09-04T04:00:29.966Z,1008.33
2018-09-04T04:01:30.041Z,1008.29
2018-09-04T04:02:29.943Z,1008.31
2018-09-04T04:03:29.930Z,1008.33
2018-09-04T04:04:29.988Z,1008.31
2018-09-04T04:05:29.907Z,1008.29
2018-09-04T04:06:29.902Z,1008.35
2018-09-04T04:07:29.888Z,1008.30
2018-09-04T04:08:29.880Z,1008.34
2018-09-04T04:09:29.934Z,1008.35
2018-09-04T04:10:29.853Z,1008.43
2018-09-04T04:11:29.884Z,1008.42
2018-09-04T04:12:30.735Z,1008.48
2018-09-04T04:13:29.822Z,1008.35
2018-09-04T04:14:29.878Z,1008.45
2018-09-04T04:15:29.800Z,1008.47
2018-09-04T04:16:29.793Z,1008.46
2018-09-04T04:17:30.729Z,1008.46
2018-09-04T04:18:29.767Z,1008.51
2018-09-04T04:19:29.822Z,1008.50
2018-09-04T04:20:29.745Z,1008.53
2018-09-04T04:21:29.741Z,1008.50
2018-09-04T04:22:29.728Z,1008.51
2018-09-04T04:23:29.720Z,1008.53
2018-09-04T04:24:29.789Z,1008.50
2018-09-04T04:25:29.694Z,1008.54
2018-09-04T04:26:29.681Z,1008.49
2018-09-04T04:27:29.739Z,1008.53
2018-09-04T04:28:29.673Z,1008.52
2018-09-04T04:29:29.651Z,1008.48
2018-09-04T04:30:29.711Z,1008.49
2018-09-04T04:31:29.634Z,1008.48
2018-09-04T04:32:29.620Z,1008.48
2018-09-04T04:33:30.232Z,1008.52
2018-09-04T04:34:29.602Z,1008.53
2018-09-04T04:35:29.651Z,1008.50
2018-09-04T04:36:29.584Z,1008.53
2018-09-04T04:37:29.573Z,1008.54
2018-09-04T04:38:29.560Z,1008.51
2018-09-04T04:39:29.548Z,1008.55
2018-09-04T04:40:29.604Z,1008.59
2018-09-04T04:41:29.534Z,1008.58
2018-09-04T04:42:29.515Z,1008.54
2018-09-04T04:43:29.518Z,1008.56
2018-09-04T04:44:29.493Z,1008.61
2018-09-04T04:45:29.548Z,1008.60
2018-09-04T04:46:29.478Z,1008.59
2018-09-04T04:47:29.460Z,1008.60
2018-09-04T04:48:29.460Z,1008.56
2018-09-04T04:49:29.448Z,1008.57
2018-09-04T04:50:29.498Z,1008.54
2018-09-04T04:51:29.488Z,1008.55
2018-09-04T04:52:29.419Z,1008.54
2018-09-04T04:53:29.402Z,1008.59
2018-09-04T04:54:32.226Z,1008.57
2018-09-04T04:55:29.446Z,1008.50
2018-09-04T04:56:29.366Z,1008.46
2018-09-04T04:57:29.359Z,1008.45
2018-09-04T04:58:29.347Z,1008.47
2018-09-04T04:59:29.335Z,1008.47
2018-09-04T05:00:29.467Z,1008.44
2018-09-04T05:01:29.333Z,1008.45
2018-09-04T05:02:29.302Z,1008.48
2018-09-04T05:03:29.291Z,1008.51
2018-09-04T05:04:29.281Z,1008.51
2018-09-04T05:05:29.330Z,1008.52
2018-09-04T05:06:29.272Z,1008.51
2018-09-04T05:07:29.250Z,1008.53
2018-09-04T05:08:29.247Z,1008.57
2018-09-04T05:09:29.238Z,1008.57
2018-09-04T05:10:29.286Z,1008.60
2018-09-04T05:11:29.223Z,1008.58
2018-09-04T05:12:29.197Z,1008.63
2018-09-04T05:13:29.189Z,1008.63
2018-09-04T05:14:29.175Z,1008.61
2018-09-04T05:15:29.803Z,1008.61
2018-09-04T05:16:29.156Z,1008.55
2018-09-04T05:17:29.144Z,1008.61
2018-09-04T05:18:29.142Z,1008.65
2018-09-04T05:19:29.123Z,1008.61
2018-09-04T05:20:29.178Z,1008.62
2018-09-04T05:21:29.101Z,1008.54
2018-09-04T05:22:29.139Z,1008.54
2018-09-04T05:23:29.079Z,1008.57
2018-09-04T05:24:29.067Z,1008.60
2018-09-04T05:25:29.130Z,1008.53
2018-09-04T05:26:29.046Z,1008.62
2018-09-04T05:27:29.034Z,1008.64
2018-09-04T05:28:29.026Z,1008.65
2018-09-04T05:29:29.047Z,1008.62
2018-09-04T05:30:29.129Z,1008.68
2018-09-04T05:31:28.998Z,1008.68
2018-09-04T05:32:28.984Z,1008.67
2018-09-04T05:33:28.971Z,1008.70
2018-09-04T05:34:28.963Z,1008.70
2018-09-04T05:35:29.015Z,1008.70
2018-09-04T05:36:29.724Z,1008.72
2018-09-04T05:37:28.926Z,1008.67
2018-09-04T05:38:28.918Z,1008.72
2018-09-04T05:39:28.910Z,1008.68
2018-09-04T05:40:28.968Z,1008.71
2018-09-04T05:41:28.891Z,1008.71
2018-09-04T05:42:28.871Z,1008.76
2018-09-04T05:43:28.868Z,1008.75
2018-09-04T05:44:28.854Z,1008.74
2018-09-04T05:45:28.915Z,1008.75
2018-09-04T05:46:28.830Z,1008.78
2018-09-04T05:47:28.821Z,1008.84
2018-09-04T05:48:28.810Z,1008.83
2018-09-04T05:49:28.799Z,1008.86
2018-09-04T05:50:28.858Z,1008.89
2018-09-04T05:51:28.778Z,1008.91
2018-09-04T05:52:28.766Z,1008.91
2018-09-04T05:53:28.752Z,1008.91
2018-09-04T05:54:28.740Z,1008.88
2018-09-04T05:55:28.799Z,1008.86
2018-09-04T05:56:28.719Z,1008.87
2018-09-04T05:57:29.222Z,1008.89
2018-09-04T05:58:28.704Z,1008.87
2018-09-04T05:59:36.217Z,1008.86
2018-09-04T06:00:28.741Z,1008.88
2018-09-04T06:01:28.686Z,1008.93
2018-09-04T06:02:28.655Z,1008.91
2018-09-04T06:03:28.649Z,1008.90
2018-09-04T06:04:28.638Z,1008.98
2018-09-04T06:05:28.693Z,1008.92
2018-09-04T06:06:28.615Z,1008.99
2018-09-04T06:07:28.608Z,1008.90
2018-09-04T06:08:36.737Z,1008.84
2018-09-04T06:09:37.148Z,1008.86
2018-09-04T06:10:28.591Z,1008.84
2018-09-04T06:11:28.634Z,1008.87
2018-09-04T06:12:28.550Z,1008.86
2018-09-04T06:13:28.541Z,1008.84
2018-09-04T06:14:28.530Z,1008.85
2018-09-04T06:15:28.519Z,1008.81
2018-09-04T06:16:28.577Z,1008.85
2018-09-04T06:17:28.497Z,1008.81
2018-09-04T06:18:29.350Z,1008.91
2018-09-04T06:19:28.475Z,1008.86
2018-09-04T06:20:28.464Z,1008.85
2018-09-04T06:21:28.524Z,1008.89
2018-09-04T06:22:28.452Z,1008.88
2018-09-04T06:23:28.440Z,1008.95
2018-09-04T06:24:28.426Z,1008.89
2018-09-04T06:25:28.412Z,1008.91
2018-09-04T06:26:28.467Z,1008.87
2018-09-04T06:27:28.397Z,1008.86
2018-09-04T06:28:28.382Z,1008.80
2018-09-04T06:29:28.389Z,1008.79
2018-09-04T06:30:29.338Z,1008.82
2018-09-04T06:31:28.415Z,1008.83
2018-09-04T06:32:28.344Z,1008.84
2018-09-04T06:33:28.328Z,1008.83
2018-09-04T06:34:28.321Z,1008.79
2018-09-04T06:35:28.322Z,1008.76
2018-09-04T06:36:28.365Z,1008.81
2018-09-04T06:37:28.287Z,1008.75
2018-09-04T06:38:28.276Z,1008.82
2018-09-04T06:39:28.279Z,1008.87
2018-09-04T06:40:28.258Z,1008.86
2018-09-04T06:41:28.312Z,1008.90
2018-09-04T06:42:28.235Z,1008.88
2018-09-04T06:43:28.224Z,1008.91
2018-09-04T06:44:28.214Z,1008.95
2018-09-04T06:45:28.202Z,1008.93
2018-09-04T06:46:28.267Z,1008.94
2018-09-04T06:47:28.180Z,1008.91
2018-09-04T06:48:28.170Z,1008.90
2018-09-04T06:49:28.181Z,1008.93
2018-09-04T06:50:28.149Z,1008.87
2018-09-04T06:51:28.413Z,1008.89
2018-09-04T06:52:28.130Z,1008.91
2018-09-04T06:53:28.124Z,1008.88
2018-09-04T06:54:28.125Z,1008.89
2018-09-04T06:55:28.094Z,1008.87
2018-09-04T06:56:28.165Z,1008.93
2018-09-04T06:57:28.070Z,1008.95
2018-09-04T06:58:28.063Z,1008.91
2018-09-04T06:59:28.052Z,1008.87
2018-09-04T07:00:28.043Z,1008.87
2018-09-04T07:01:28.094Z,1008.92
2018-09-04T07:02:28.021Z,1008.88
2018-09-04T07:03:28.013Z,1008.86
2018-09-04T07:04:28.002Z,1008.99
2018-09-04T07:05:27.989Z,1008.88
2018-09-04T07:06:28.059Z,1008.96
2018-09-04T07:07:27.966Z,1009.04
2018-09-04T07:08:27.958Z,1008.99
2018-09-04T07:09:27.944Z,1009.06
2018-09-04T07:10:27.936Z,1009.03
2018-09-04T07:11:27.988Z,1009.11
2018-09-04T07:12:36.018Z,1009.10
2018-09-04T07:13:36.028Z,1009.05
2018-09-04T07:14:27.892Z,1008.99
2018-09-04T07:15:27.881Z,1009.06
2018-09-04T07:16:27.936Z,1009.08
2018-09-04T07:17:27.867Z,1009.07
2018-09-04T07:18:27.851Z,1009.04
2018-09-04T07:19:27.839Z,1009.01
2018-09-04T07:20:27.830Z,1009.00
2018-09-04T07:21:27.888Z,1009.05
2018-09-04T07:22:27.812Z,1009.03
2018-09-04T07:23:27.798Z,1009.05
2018-09-04T07:24:27.787Z,1009.08
2018-09-04T07:25:27.788Z,1009.06
2018-09-04T07:26:27.836Z,1009.05
2018-09-04T07:27:27.764Z,1009.11
2018-09-04T07:28:27.745Z,1009.13
2018-09-04T07:29:27.734Z,1009.09
2018-09-04T07:30:27.723Z,1009.18
2018-09-04T07:31:27.778Z,1009.15
2018-09-04T07:32:27.709Z,1009.11
2018-09-04T07:33:27.693Z,1009.13
2018-09-04T07:34:28.419Z,1009.14
2018-09-04T07:35:27.675Z,1009.17
2018-09-04T07:36:27.855Z,1009.18
2018-09-04T07:37:27.654Z,1009.18
2018-09-04T07:38:27.642Z,1009.19
2018-09-04T07:39:27.631Z,1009.16
2018-09-04T07:40:27.621Z,1009.16
2018-09-04T07:41:27.679Z,1009.20
2018-09-04T07:42:27.605Z,1009.21
2018-09-04T07:43:27.593Z,1009.16
2018-09-04T07:44:27.582Z,1009.16
2018-09-04T07:45:27.576Z,1009.18
2018-09-04T07:46:27.631Z,1009.18
2018-09-04T07:47:27.555Z,1009.13
2018-09-04T07:48:27.540Z,1009.17
2018-09-04T07:49:27.537Z,1009.14
2018-09-04T07:50:27.521Z,1009.17
2018-09-04T07:51:27.698Z,1009.19
2018-09-04T07:52:27.499Z,1009.24
2018-09-04T07:53:27.501Z,1009.24
2018-09-04T07:54:27.479Z,1009.17
2018-09-04T07:55:28.415Z,1009.22
2018-09-04T07:56:27.459Z,1009.20
2018-09-04T07:57:27.516Z,1009.19
2018-09-04T07:58:27.441Z,1009.18
2018-09-04T07:59:27.427Z,1009.17
2018-09-04T08:00:27.418Z,1009.17
2018-09-04T08:01:27.414Z,1009.17
2018-09-04T08:02:27.463Z,1009.16
2018-09-04T08:03:27.388Z,1009.17
2018-09-04T08:04:27.374Z,1009.17
2018-09-04T08:05:27.369Z,1009.17
2018-09-04T08:06:27.360Z,1009.13
2018-09-04T08:07:27.413Z,1009.17
2018-09-04T08:08:27.338Z,1009.13
2018-09-04T08:09:27.332Z,1009.20
2018-09-04T08:10:27.319Z,1009.13
2018-09-04T08:11:27.309Z,1009.14
2018-09-04T08:12:27.368Z,1009.14
2018-09-04T08:13:27.288Z,1009.15
2018-09-04T08:14:27.279Z,1009.19
2018-09-04T08:15:27.272Z,1009.18
2018-09-04T08:16:27.928Z,1009.16
2018-09-04T08:17:27.318Z,1009.17
2018-09-04T08:18:27.237Z,1009.18
2018-09-04T08:19:27.230Z,1009.25
2018-09-04T08:20:27.235Z,1009.26
2018-09-04T08:21:27.213Z,1009.30
2018-09-04T08:22:27.266Z,1009.31
2018-09-04T08:23:27.188Z,1009.40
2018-09-04T08:24:27.185Z,1009.35
2018-09-04T08:25:27.171Z,1009.41
2018-09-04T08:26:27.173Z,1009.45
2018-09-04T08:27:27.213Z,1009.46
2018-09-04T08:28:27.143Z,1009.46
2018-09-04T08:29:27.133Z,1009.41
2018-09-04T08:30:27.124Z,1009.43
2018-09-04T08:31:27.110Z,1009.42
2018-09-04T08:32:27.179Z,1009.40
2018-09-04T08:33:27.097Z,1009.39
2018-09-04T08:34:27.088Z,1009.31
2018-09-04T08:35:27.074Z,1009.34
2018-09-04T08:36:27.068Z,1009.38
2018-09-04T08:37:27.490Z,1009.38
2018-09-04T08:38:27.048Z,1009.36
2018-09-04T08:39:27.920Z,1009.33
2018-09-04T08:40:27.027Z,1009.46
2018-09-04T08:41:27.019Z,1009.46
2018-09-04T08:42:27.071Z,1009.50
2018-09-04T08:43:27.004Z,1009.56
2018-09-04T08:44:26.993Z,1009.53
2018-09-04T08:45:26.989Z,1009.55
2018-09-04T08:46:26.980Z,1009.56
2018-09-04T08:47:27.066Z,1009.62
2018-09-04T08:48:26.985Z,1009.59
2018-09-04T08:49:26.949Z,1009.57
2018-09-04T08:50:26.962Z,1009.62
2018-09-04T08:51:26.926Z,1009.59
2018-09-04T08:52:26.981Z,1009.60
2018-09-04T08:53:26.973Z,1009.61
2018-09-04T08:54:26.903Z,1009.66
2018-09-04T08:55:26.897Z,1009.66
2018-09-04T08:56:26.895Z,1009.62
2018-09-04T08:57:26.947Z,1009.63
2018-09-04T08:58:27.420Z,1009.69
2018-09-04T08:59:26.867Z,1009.62
2018-09-04T09:00:26.846Z,1009.66
2018-09-04T09:01:26.840Z,1009.68
2018-09-04T09:02:26.889Z,1009.67
2018-09-04T09:03:26.821Z,1009.67
2018-09-04T09:04:26.809Z,1009.66
2018-09-04T09:05:26.833Z,1009.66
2018-09-04T09:06:26.796Z,1009.70
2018-09-04T09:07:26.848Z,1009.69
2018-09-04T09:08:26.779Z,1009.66
2018-09-04T09:09:26.765Z,1009.67
2018-09-04T09:10:26.756Z,1009.63
2018-09-04T09:11:26.747Z,1009.60
2018-09-04T09:12:26.797Z,1009.57
2018-09-04T09:13:26.734Z,1009.60
2018-09-04T09:14:26.724Z,1009.61
2018-09-04T09:15:26.714Z,1009.58
2018-09-04T09:16:26.703Z,1009.57
2018-09-04T09:17:26.772Z,1009.52
2018-09-04T09:18:26.698Z,1009.50
2018-09-04T09:19:27.423Z,1009.55
2018-09-04T09:20:26.670Z,1009.55
2018-09-04T09:21:26.665Z,1009.54
2018-09-04T09:22:26.709Z,1009.53
2018-09-04T09:23:26.644Z,1009.50
2018-09-04T09:24:26.638Z,1009.53
2018-09-04T09:25:26.625Z,1009.52
2018-09-04T09:26:26.617Z,1009.46
2018-09-04T09:27:26.672Z,1009.51
2018-09-04T09:28:26.600Z,1009.52
2018-09-04T09:29:26.595Z,1009.53
2018-09-04T09:30:26.584Z,1009.50
2018-09-04T09:31:26.575Z,1009.53
2018-09-04T09:32:26.650Z,1009.55
2018-09-04T09:33:26.558Z,1009.56
2018-09-04T09:34:26.560Z,1009.49
2018-09-04T09:35:26.542Z,1009.55
2018-09-04T09:36:26.587Z,1009.55
2018-09-04T09:37:26.534Z,1009.52
2018-09-04T09:38:26.574Z,1009.50
2018-09-04T09:39:26.510Z,1009.50
2018-09-04T09:40:27.421Z,1009.39
2018-09-04T09:41:26.485Z,1009.47
2018-09-04T09:42:26.482Z,1009.50
2018-09-04T09:43:26.543Z,1009.50
2018-09-04T09:44:34.599Z,1009.52
2018-09-04T09:45:34.552Z,1009.53
2018-09-04T09:46:33.970Z,1009.55
2018-09-04T09:47:26.442Z,1009.47
2018-09-04T09:48:26.493Z,1009.53
2018-09-04T09:49:26.424Z,1009.58
2018-09-04T09:50:26.412Z,1009.54
2018-09-04T09:51:26.413Z,1009.51
2018-09-04T09:52:26.409Z,1009.52
2018-09-04T09:53:26.593Z,1009.52
2018-09-04T09:54:26.381Z,1009.44
2018-09-04T09:55:26.371Z,1009.49
2018-09-04T09:56:26.408Z,1009.43
2018-09-04T09:57:26.365Z,1009.43
2018-09-04T09:58:26.423Z,1009.41
2018-09-04T09:59:26.421Z,1009.43
2018-09-04T10:00:26.331Z,1009.42
2018-09-04T10:01:26.328Z,1009.44
2018-09-04T10:02:26.318Z,1009.42
2018-09-04T10:03:26.369Z,1009.44
2018-09-04T10:04:26.317Z,1009.42
2018-09-04T10:05:26.291Z,1009.43
2018-09-04T10:06:26.281Z,1009.41
2018-09-04T10:07:27.086Z,1009.44
2018-09-04T10:08:26.338Z,1009.36
2018-09-04T10:09:26.253Z,1009.34
2018-09-04T10:10:26.258Z,1009.39
2018-09-04T10:11:26.239Z,1009.37
2018-09-04T10:12:26.234Z,1009.35
2018-09-04T10:13:26.291Z,1009.27
2018-09-04T10:14:26.214Z,1009.30
2018-09-04T10:15:26.203Z,1009.26
2018-09-04T10:16:26.197Z,1009.32
2018-09-04T10:17:26.196Z,1009.32
2018-09-04T10:18:26.241Z,1009.31
2018-09-04T10:19:26.172Z,1009.21
2018-09-04T10:20:26.164Z,1009.20
2018-09-04T10:21:26.222Z,1009.21
2018-09-04T10:22:26.147Z,1009.24
2018-09-04T10:23:26.220Z,1009.33
2018-09-04T10:24:26.124Z,1009.26
2018-09-04T10:25:26.119Z,1009.29
2018-09-04T10:26:26.154Z,1009.34
2018-09-04T10:27:26.105Z,1009.33
2018-09-04T10:28:26.597Z,1009.37
2018-09-04T10:29:26.088Z,1009.38
2018-09-04T10:30:26.080Z,1009.41
2018-09-04T10:31:26.071Z,1009.38
2018-09-04T10:32:26.076Z,1009.41
2018-09-04T10:33:26.126Z,1009.38
2018-09-04T10:34:26.056Z,1009.39
2018-09-04T10:35:26.047Z,1009.38
2018-09-04T10:36:26.099Z,1009.38
2018-09-04T10:37:26.044Z,1009.43
2018-09-04T10:38:26.084Z,1009.38
2018-09-04T10:39:26.006Z,1009.38
2018-09-04T10:40:26.078Z,1009.34
2018-09-04T10:41:25.990Z,1009.35
2018-09-04T10:42:25.983Z,1009.34
2018-09-04T10:43:26.048Z,1009.34
2018-09-04T10:44:25.981Z,1009.33
2018-09-04T10:45:25.972Z,1009.34
2018-09-04T10:46:25.958Z,1009.39
2018-09-04T10:47:25.941Z,1008.93
2018-09-04T10:48:26.027Z,1008.84
2018-09-04T10:49:26.524Z,1009.29
2018-09-04T10:50:25.918Z,1009.13
2018-09-04T10:51:25.921Z,1008.77
2018-09-04T10:52:25.902Z,1008.74
2018-09-04T10:53:25.955Z,1009.21
2018-09-04T10:54:25.891Z,1008.74
2018-09-04T10:55:25.877Z,1008.73
2018-09-04T10:56:25.875Z,1008.73
2018-09-04T10:57:25.862Z,1009.22
2018-09-04T10:58:25.913Z,1009.17
2018-09-04T10:59:25.848Z,1009.27
2018-09-04T11:00:25.837Z,1009.11
2018-09-04T11:01:25.832Z,1008.68
2018-09-04T11:02:25.964Z,1009.02
2018-09-04T11:03:25.870Z,1008.70
2018-09-04T11:04:25.808Z,1008.62
2018-09-04T11:05:25.797Z,1008.63
2018-09-04T11:06:25.784Z,1008.63
2018-09-04T11:07:25.779Z,1009.04
2018-09-04T11:08:25.831Z,1009.01
2018-09-04T11:09:25.767Z,1009.13
2018-09-04T11:10:26.525Z,1009.15
2018-09-04T11:11:25.743Z,1009.18
2018-09-04T11:12:25.732Z,1009.17
2018-09-04T11:13:25.793Z,1009.18
2018-09-04T11:14:25.715Z,1009.19
2018-09-04T11:15:25.723Z,1009.13
2018-09-04T11:16:25.704Z,1009.17
2018-09-04T11:17:25.695Z,1009.19
2018-09-04T11:18:25.761Z,1009.16
2018-09-04T11:19:25.678Z,1009.20
2018-09-04T11:20:25.667Z,1009.20
2018-09-04T11:21:25.680Z,1009.23
2018-09-04T11:22:25.650Z,1009.16
2018-09-04T11:23:25.647Z,1009.12
2018-09-04T11:24:25.714Z,1009.24
2018-09-04T11:25:25.644Z,1009.15
2018-09-04T11:26:25.866Z,1009.06
2018-09-04T11:27:25.614Z,1009.14
2018-09-04T11:28:25.603Z,1009.18
2018-09-04T11:29:25.663Z,1009.17
2018-09-04T11:30:25.597Z,1009.16
2018-09-04T11:31:26.524Z,1009.13
2018-09-04T11:32:25.851Z,1009.12
2018-09-04T11:33:25.569Z,1009.15
2018-09-04T11:34:25.938Z,1009.15
2018-09-04T11:35:25.563Z,1009.11
2018-09-04T11:36:25.745Z,1009.12
2018-09-04T11:37:25.714Z,1009.14
2018-09-04T11:38:25.708Z,1009.13
2018-09-04T11:39:25.582Z,1009.10
2018-09-04T11:40:25.573Z,1008.86
2018-09-04T11:41:25.518Z,1009.13
2018-09-04T11:42:25.508Z,1009.21
2018-09-04T11:43:25.491Z,1009.16
2018-09-04T11:44:25.547Z,1008.59
2018-09-04T11:45:25.482Z,1008.58
2018-09-04T11:46:25.478Z,1008.60
2018-09-04T11:47:25.465Z,1008.79
2018-09-04T11:48:25.453Z,1009.06
2018-09-04T11:49:25.506Z,1009.07
2018-09-04T11:50:25.440Z,1008.55
2018-09-04T11:51:25.438Z,1008.50
2018-09-04T11:52:28.048Z,1008.47
2018-09-04T11:53:25.438Z,1008.98
2018-09-04T11:54:25.485Z,1008.97
2018-09-04T11:55:25.418Z,1008.94
2018-09-04T11:56:25.392Z,1008.94
2018-09-04T11:57:25.383Z,1008.99
2018-09-04T11:58:25.378Z,1008.97
2018-09-04T11:59:25.478Z,1008.98
2018-09-04T12:00:25.361Z,1008.97
2018-09-04T12:01:25.355Z,1008.93
2018-09-04T12:02:25.358Z,1008.91
2018-09-04T12:03:25.344Z,1008.94
2018-09-04T12:04:25.418Z,1008.99
2018-09-04T12:05:25.324Z,1009.01
2018-09-04T12:06:25.318Z,1009.02
2018-09-04T12:07:25.325Z,1009.03
2018-09-04T12:08:25.296Z,1009.05